NEODyS-2

Near Earth Objects - Dynamic Site
NEODyS ∴ Observatories ∴ Site 691 ∴ Obs & residuals
Contact »
691  ▹ 
OBSERVATIONS AND RESIDUALS

691-Steward Observatory, Kitt Peak-Spacewatch

Detections | Residuals | Detections & Residuals

[1-200] [201-400] [401-600] [601-800] [801-1000] [1001-1200] [1201-1400] [1401-1600] [1601-1800] [1801-2000] [2001-2200] [2201-2400] [2401-2600] [2601-2800] [2801-3000] [3001-3200] [3201-3400] [3401-3600] [3601-3800] [3801-4000] [4001-4200] [4201-4400] [4401-4600] [4601-4800] [4801-5000] [5001-5200] [5201-5400] [5401-5600] [5601-5800] [5801-6000] [6001-6200] [6201-6400] [6401-6600] [6601-6800] [6801-7000] [7001-7200] [7201-7400] [7401-7600] [7601-7800] [7801-8000] [8001-8200] [8201-8400] [8401-8600] [8601-8800] [8801-9000] [9001-9200] [9201-9400] [9401-9600] [9601-9800] [9801-10000] [10001-10200] [10201-10400] [10401-10600] [10601-10800] [10801-11000] [11001-11200] [11201-11400] [11401-11600] [11601-11800] [11801-12000] [12001-12200] [12201-12400] [12401-12600] [12601-12800] [12801-13000] [13001-13200] [13201-13400] [13401-13600] [13601-13800] [13801-14000] [14001-14200] [14201-14400] [14401-14600] [14601-14800] [14801-15000] [15001-15200] [15201-15400] [15401-15600] [15601-15800] [15801-16000] [16001-16200] [16201-16400] [16401-16600] [16601-16800] [16801-17000] [17001-17200] [17201-17400] [17401-17600] [17601-17800] [17801-18000] [18001-18200] [18201-18400] [18401-18600] [18601-18800] [18801-19000] [19001-19200] [19201-19400] [19401-19600] [19601-19800] [19801-20000] [20001-20200] [20201-20400] [20401-20600] [20601-20800] [20801-21000] [21001-21200] [21201-21400] [21401-21600] [21601-21800] [21801-22000] [22001-22200] [22201-22400] [22401-22600] [22601-22800] [22801-23000] [23001-23200] [23201-23400] [23401-23600] [23601-23800] [23801-24000] [24001-24200] [24201-24400] [24401-24600] [24601-24800] [24801-25000] [25001-25200] [25201-25400] [25401-25600] [25601-25800] [25801-26000] [26001-26200] [26201-26400] [26401-26600] [26601-26800] [26801-27000] [27001-27200] [27201-27400] [27401-27600] [27601-27800] [27801-28000] [28001-28200] [28201-28400] [28401-28600] [28601-28800] [28801-29000] [29001-29200] [29201-29400] [29401-29600] [29601-29800] [29801-30000] [30001-30200] [30201-30400] [30401-30600] [30601-30800] [30801-31000] [31001-31200] [31201-31400] [31401-31600] [31601-31800] [31801-32000] [32001-32200] [32201-32400] [32401-32600] [32601-32800] [32801-33000] [33001-33200] [33201-33400] [33401-33600] [33601-33800] [33801-34000] [34001-34200] [34201-34400] [34401-34600] [34601-34800] [34801-35000] [35001-35200] [35201-35400] [35401-35600] [35601-35800] [35801-36000] [36001-36200] [36201-36400] [36401-36600] [36601-36800] [36801-37000] [37001-37200] [37201-37400] [37401-37600] [37601-37800] [37801-38000] [38001-38200] [38201-38400] [38401-38600] [38601-38800] [38801-39000] [39001-39200] [39201-39400] [39401-39600] [39601-39800] [39801-40000] [40001-40200] [40201-40400] [40401-40600] [40601-40800] [40801-41000] [41001-41200] [41201-41400] [41401-41600] [41601-41800] [41801-42000] [42001-42200] [42201-42400] [42401-42600] [42601-42800] [42801-43000] [43001-43200] [43201-43400] [43401-43600] [43601-43800] [43801-44000] [44001-44200] [44201-44400] [44401-44600] [44601-44800] [44801-45000] [45001-45200] [45201-45400] [45401-45600] [45601-45800] [45801-46000] [46001-46200] [46201-46400] [46401-46600] [46601-46800] [46801-47000] [47001-47200] [47201-47400] [47401-47600] [47601-47800] [47801-48000] [48001-48200] [48201-48400] [48401-48600] [48601-48800] [48801-49000] [49001-49200] [49201-49400] [49401-49600] [49601-49800] [49801-50000] [50001-50200] [50201-50388]

Designation T Tech N Date Right Ascension Declination Apparent Magnitude Star Catalog Site code χ Used A Used M
yr-mo-day precision hr:min:sec precision rms F bias residual deg min sec precision rms F bias residual mag/col rms residual
2019AQ2 O C K 2019-01-11.28794 1.000E-05 03:59:28.320 1.500E-01 0.500 F -0.101 0.430 +26° 06' 28.20" 1.000E-01 0.500 F 0.290 -0.297 20.9 R 0.70 0.14 o 691 1.05 Yes Yes
2007HW4 O C K 2019-01-11.30924 1.000E-05 04:41:41.800 1.500E-01 0.500 F -0.162 0.439 +18° 06' 42.50" 1.000E-01 0.500 F 0.306 -0.217 22.9 R 0.70 1.19 o 691 1.01 Yes Yes
2007HW4 O C K 2019-01-11.32539 1.000E-05 04:41:45.130 1.500E-01 0.500 F -0.162 -0.368 +18° 07' 07.00" 1.000E-01 0.500 F 0.306 -0.462 23.5 R 0.70 1.79 o 691 1.24 Yes Yes
2019AV2 O C 2019-01-11.34234 1.000E-05 06:08:23.140 1.500E-01 0.500 F -0.133 -0.086 +10° 52' 26.60" 1.000E-01 0.500 F -0.044 -0.066 18.1 R 0.70 -0.15 o 691 0.22 Yes Yes
2019AV2 O C 2019-01-11.34506 1.000E-05 06:08:22.710 1.500E-01 0.500 F -0.133 -0.166 +10° 52' 31.20" 1.000E-01 0.500 F -0.044 0.077 18.1 R 0.70 -0.15 o 691 0.37 Yes Yes
2019AV2 O C 2019-01-11.35320 1.000E-05 06:08:21.450 1.500E-01 0.500 F -0.133 -0.043 +10° 52' 44.40" 1.000E-01 0.500 F -0.044 -0.055 18.3 R 0.70 0.05 o 691 0.14 Yes Yes
2019AU O C 2019-01-11.39286 1.000E-05 06:31:29.920 1.500E-01 0.500 F -0.026 0.062 +25° 51' 54.10" 1.000E-01 0.500 F 0.226 0.053 19.2 R 0.70 0.20 o 691 0.17 Yes Yes
2019AU O C 2019-01-11.39597 1.000E-05 06:31:30.860 1.500E-01 0.500 F -0.026 -0.288 +25° 52' 35.70" 1.000E-01 0.500 F 0.226 0.727 19.4 R 0.70 0.40 o 691 1.62 Yes Yes
2019AU O C 2019-01-11.40113 1.000E-05 06:31:32.500 1.500E-01 0.500 F -0.026 0.022 +25° 53' 43.00" 1.000E-01 0.500 F 0.226 0.238 19.1 R 0.70 0.10 o 691 0.50 Yes Yes
2019AT3 O C K 2019-01-11.40367 1.000E-05 08:25:16.110 1.500E-01 0.500 F 0.090 0.456 +27° 50' 58.60" 1.000E-01 0.500 F 0.247 0.148 20.2 R 0.70 0.21 o 691 1.01 Yes Yes
2019AT3 O C K 2019-01-11.40589 1.000E-05 08:25:15.190 1.500E-01 0.500 F 0.090 0.172 +27° 50' 49.70" 1.000E-01 0.500 F 0.247 -0.483 20.0 R 0.70 0.01 o 691 1.05 Yes Yes
2019AT3 O C K 2019-01-11.40812 1.000E-05 08:25:14.280 1.500E-01 0.500 F 0.090 0.074 +27° 50' 41.80" 1.000E-01 0.500 F 0.247 -0.072 19.2 R 0.70 -0.78 o 691 0.21 Yes Yes
2019AU3 O C K 2019-01-11.44860 1.000E-05 09:53:50.330 1.500E-01 0.500 F 0.078 -0.565 +24° 43' 17.10" 1.000E-01 0.500 F 0.327 -0.071 20.7 R 0.70 0.10 o 691 1.16 Yes Yes
2019AU3 O C K 2019-01-11.45434 1.000E-05 09:53:48.950 1.500E-01 0.500 F 0.078 -0.159 +24° 42' 46.20" 1.000E-01 0.500 F 0.327 -0.171 21.0 R 0.70 0.40 o 691 0.47 Yes Yes
2019AU3 O C K 2019-01-11.46008 1.000E-05 09:53:47.520 1.500E-01 0.500 F 0.078 -0.447 +24° 42' 15.40" 1.000E-01 0.500 F 0.327 -0.146 21.5 R 0.70 0.90 o 691 0.96 Yes Yes
2019AP8 O C K 2019-01-11.51065 1.000E-05 08:07:55.000 1.500E-01 0.500 F 0.019 0.205 +21° 39' 05.10" 1.000E-01 0.500 F 0.293 -0.141 22.1 R 0.70 0.54 o 691 0.50 Yes Yes
2019AP8 O C K 2019-01-11.52381 1.000E-05 08:07:53.240 1.500E-01 0.500 F 0.019 -0.211 +21° 39' 17.10" 1.000E-01 0.500 F 0.293 -1.120 22.0 R 0.70 0.44 o 691 2.30 Yes Yes
2019AP8 O C K 2019-01-11.53697 1.000E-05 08:07:51.570 1.500E-01 0.500 F 0.019 0.404 +21° 39' 31.90" 1.000E-01 0.500 F 0.293 0.740 22.0 R 0.70 0.44 o 691 1.70 Yes Yes
2019AC O C H 2019-01-12.16800 1.000E-05 03:31:27.010 1.500E-01 0.500 F -0.183 -0.127 +21° 53' 01.60" 1.000E-01 0.500 F 0.374 0.075 20.2 R 0.70 0.59 o 691 0.30 Yes Yes
2019AC O C H 2019-01-12.17506 1.000E-05 03:31:27.360 1.500E-01 0.500 F -0.183 0.137 +21° 53' 22.20" 1.000E-01 0.500 F 0.374 0.292 19.8 R 0.70 0.19 o 691 0.65 Yes Yes
2019AC O C H 2019-01-12.18206 1.000E-05 03:31:27.670 1.500E-01 0.500 F -0.183 -0.129 +21° 53' 41.90" 1.000E-01 0.500 F 0.374 -0.197 20.0 R 0.70 0.39 o 691 0.48 Yes Yes
2018XV5 O C H 2019-01-12.20194 1.000E-05 04:46:54.490 1.500E-01 0.500 F -0.077 0.086 +06° 50' 19.50" 1.000E-01 0.500 F 0.160 0.004 o 691 0.17 Yes No
2018XV5 O C H 2019-01-12.21018 1.000E-05 04:46:54.170 1.500E-01 0.500 F -0.077 -0.531 +06° 50' 22.90" 1.000E-01 0.500 F 0.160 0.500 o 691 1.46 Yes No
2014YR43 O C 2019-01-12.26681 1.000E-05 07:56:55.880 1.500E-01 0.500 F 0.056 -0.182 +06° 14' 24.50" 1.000E-01 0.500 F 0.122 0.069 19.6 V 0.70 0.17 o 691 0.39 Yes Yes
2014YR43 O C 2019-01-12.27460 1.000E-05 07:56:55.090 1.500E-01 0.500 F 0.056 -0.203 +06° 14' 54.40" 1.000E-01 0.500 F 0.122 -0.023 19.6 V 0.70 0.17 o 691 0.41 Yes Yes
2014YR43 O C 2019-01-12.28238 1.000E-05 07:56:54.300 1.500E-01 0.500 F 0.056 -0.227 +06° 15' 24.30" 1.000E-01 0.500 F 0.122 -0.068 19.5 V 0.70 0.07 o 691 0.48 Yes Yes
2019AX4 O C H 2019-01-12.28604 1.000E-05 08:06:34.920 1.500E-01 0.500 F 0.010 -0.374 +02° 41' 34.60" 1.000E-01 0.500 F 0.041 0.120 o 691 1.06 Yes No
2019AX4 O C H 2019-01-12.30079 1.000E-05 08:06:33.200 1.500E-01 0.500 F 0.010 0.237 +02° 42' 12.20" 1.000E-01 0.500 F 0.041 -0.300 o 691 1.07 Yes No
2007NL1 O C 2019-01-12.31406 1.000E-05 08:17:24.410 1.500E-01 0.500 F 0.021 -0.146 +11° 38' 24.90" 1.000E-01 0.500 F 0.139 -0.096 18.9 V 0.70 0.27 o 691 0.35 Yes Yes
2007NL1 O C 2019-01-12.32184 1.000E-05 08:17:23.300 1.500E-01 0.500 F 0.021 -0.140 +11° 39' 17.70" 1.000E-01 0.500 F 0.139 0.164 18.7 V 0.70 0.07 o 691 0.43 Yes Yes
2007NL1 O C 2019-01-12.32962 1.000E-05 08:17:22.200 1.500E-01 0.500 F 0.021 0.029 +11° 40' 09.90" 1.000E-01 0.500 F 0.139 -0.148 18.7 V 0.70 0.07 o 691 0.30 Yes Yes
2019AQ4 O C H 2019-01-12.36076 1.000E-05 09:12:49.620 1.500E-01 0.500 F 0.130 0.065 +09° 22' 44.20" 1.000E-01 0.500 F 0.200 0.036 20.5 R 0.70 -0.05 o 691 0.15 Yes Yes
2019AQ4 O C H 2019-01-12.36784 1.000E-05 09:12:48.260 1.500E-01 0.500 F 0.130 -0.777 +09° 22' 38.80" 1.000E-01 0.500 F 0.200 1.309 o 691 3.06 Yes No
2019AQ4 O C H 2019-01-12.37494 1.000E-05 09:12:47.020 1.500E-01 0.500 F 0.130 0.216 +09° 22' 31.00" 1.000E-01 0.500 F 0.200 0.204 20.8 R 0.70 0.26 o 691 0.60 Yes Yes
2019AP3 O C H 2019-01-12.40329 1.000E-05 10:04:53.700 1.500E-01 0.500 F 0.132 -0.044 +11° 07' 43.20" 1.000E-01 0.500 F 0.115 -0.083 21.4 R 0.70 0.88 o 691 0.19 Yes Yes
2019AP3 O C H 2019-01-12.41153 1.000E-05 10:04:54.470 1.500E-01 0.500 F 0.132 -0.297 +11° 07' 41.40" 1.000E-01 0.500 F 0.115 0.461 21.1 R 0.70 0.58 o 691 1.10 Yes Yes
2019AP3 O C H 2019-01-12.41978 1.000E-05 10:04:55.260 1.500E-01 0.500 F 0.132 -0.268 +11° 07' 38.40" 1.000E-01 0.500 F 0.115 -0.184 21.0 R 0.70 0.48 o 691 0.65 Yes Yes
2003AO4 O C H 2019-01-12.42856 1.000E-05 10:46:46.300 1.500E-01 0.500 F 0.160 -0.032 +02° 16' 32.40" 1.000E-01 0.500 F 0.157 -0.109 20.7 R 0.70 0.85 o 691 0.23 Yes Yes
2003AO4 O C H 2019-01-12.43627 1.000E-05 10:46:45.660 1.500E-01 0.500 F 0.160 -0.426 +02° 16' 22.30" 1.000E-01 0.500 F 0.157 -0.076 20.5 R 0.70 0.65 o 691 0.87 Yes Yes
2003AO4 O C H 2019-01-12.44397 1.000E-05 10:46:45.040 1.500E-01 0.500 F 0.160 -0.527 +02° 16' 12.60" 1.000E-01 0.500 F 0.157 0.344 20.5 R 0.70 0.65 o 691 1.27 Yes Yes
2018YZ1 O C H 2019-01-12.50107 1.000E-05 13:25:44.160 1.500E-01 0.500 F 0.230 -0.360 +31° 42' 47.30" 1.000E-01 0.500 F 0.205 0.077 20.7 R 0.70 0.50 o 691 0.74 Yes Yes
2018YZ1 O C H 2019-01-12.50804 1.000E-05 13:25:45.900 1.500E-01 0.500 F 0.230 0.478 +31° 42' 44.70" 1.000E-01 0.500 F 0.205 -0.160 20.1 R 0.70 -0.10 o 691 1.01 Yes Yes
2018YZ1 O C H 2019-01-12.51502 1.000E-05 13:25:47.570 1.500E-01 0.500 F 0.230 0.396 +31° 42' 42.50" 1.000E-01 0.500 F 0.205 0.016 20.6 R 0.70 0.40 o 691 0.80 Yes Yes
2009FU23 O C H 2019-01-12.52108 1.000E-05 15:32:08.230 1.500E-01 0.500 F 0.250 -0.218 +10° 08' 28.00" 1.000E-01 0.500 F 0.257 0.221 20.9 R 0.70 0.16 o 691 0.63 Yes Yes
2009FU23 O C H 2019-01-12.52887 1.000E-05 15:32:08.910 1.500E-01 0.500 F 0.250 -0.354 +10° 08' 30.00" 1.000E-01 0.500 F 0.257 0.132 20.6 R 0.70 -0.14 o 691 0.77 Yes Yes
2009FU23 O C H 2019-01-12.53665 1.000E-05 15:32:09.600 1.500E-01 0.500 F 0.250 -0.304 +10° 08' 32.20" 1.000E-01 0.500 F 0.257 0.253 20.8 R 0.70 0.06 o 691 0.81 Yes Yes
2010GJ23 O C K 2019-01-15.15243 1.000E-05 04:51:24.750 1.500E-01 0.500 F -0.072 -0.212 +02° 48' 50.30" 1.000E-01 0.500 F 0.175 -0.125 19.5 R 0.70 0.20 o 691 0.50 Yes Yes
2019AH11 O C K 2019-01-15.15555 1.000E-05 05:49:30.190 1.500E-01 0.500 F 0.010 0.338 -13° 01' 37.40" 1.000E-01 0.500 F 0.057 -0.152 21.2 R 0.70 0.22 o 691 0.75 Yes Yes
2012CT O C K 2019-01-15.16113 1.000E-05 05:56:02.110 1.500E-01 0.500 F -0.199 0.226 -20° 25' 31.70" 1.000E-01 0.500 F -0.089 0.274 20.4 R 0.70 0.60 o 691 0.72 Yes Yes
2010GJ23 O C K 2019-01-15.16722 1.000E-05 04:51:25.930 1.500E-01 0.500 F -0.072 0.136 +02° 49' 37.90" 1.000E-01 0.500 F 0.175 0.222 19.3 R 0.70 0.00 o 691 0.53 Yes Yes
2019AH11 O C K 2019-01-15.17017 1.000E-05 05:49:29.120 1.500E-01 0.500 F 0.010 0.261 -13° 01' 37.40" 1.000E-01 0.500 F 0.057 -0.314 o 691 0.82 Yes No
2012CT O C K 2019-01-15.17576 1.000E-05 05:56:04.090 1.500E-01 0.500 F -0.199 0.266 -20° 24' 34.60" 1.000E-01 0.500 F -0.089 0.871 20.3 R 0.70 0.50 o 691 1.84 Yes Yes
2010GJ23 O C K 2019-01-15.18186 1.000E-05 04:51:27.030 1.500E-01 0.500 F -0.072 -0.521 +02° 50' 24.30" 1.000E-01 0.500 F 0.175 -0.138 19.4 R 0.70 0.10 o 691 1.09 Yes Yes
2019AH11 O C K 2019-01-15.18481 1.000E-05 05:49:28.030 1.500E-01 0.500 F 0.010 -0.065 -13° 01' 37.10" 1.000E-01 0.500 F 0.057 -0.197 21.2 R 0.70 0.22 o 691 0.42 Yes Yes
2012CT O C K 2019-01-15.19040 1.000E-05 05:56:06.060 1.500E-01 0.500 F -0.199 0.244 -20° 23' 38.50" 1.000E-01 0.500 F -0.089 0.311 o 691 0.80 Yes No
2019AL7 O C K 2019-01-15.21351 1.000E-05 05:29:33.730 1.500E-01 0.500 F -0.198 -0.273 -03° 09' 44.40" 1.000E-01 0.500 F 0.031 0.308 21.3 R 0.70 1.01 o 691 0.89 Yes Yes
2019AL7 O C K 2019-01-15.23892 1.000E-05 05:29:38.770 1.500E-01 0.500 F -0.198 -0.191 -03° 08' 31.50" 1.000E-01 0.500 F 0.031 0.284 20.9 R 0.70 0.60 o 691 0.74 Yes Yes
2018YZ2 O C K 2019-01-15.40472 1.000E-05 06:44:46.240 1.500E-01 0.500 F -0.111 -1.612 +19° 55' 25.00" 1.000E-01 0.500 F 0.193 -0.938 19.9 R 0.70 -0.57 o 691 3.70 No Yes
2018YZ2 O C K 2019-01-15.41905 1.000E-05 06:44:44.410 1.500E-01 0.500 F -0.111 -0.009 +19° 55' 06.00" 1.000E-01 0.500 F 0.193 -0.086 20.7 R 0.70 0.23 o 691 0.17 Yes Yes
2019AP13 O C K 2019-01-15.43762 1.000E-05 09:24:32.480 1.500E-01 0.500 F 0.100 0.119 +21° 25' 20.60" 1.000E-01 0.500 F 0.279 -0.047 20.7 R 0.70 -0.10 o 691 0.26 Yes Yes
2019AP13 O C K 2019-01-15.45233 1.000E-05 09:24:28.050 1.500E-01 0.500 F 0.100 0.148 +21° 26' 05.10" 1.000E-01 0.500 F 0.279 -0.173 20.8 R 0.70 -0.01 o 691 0.46 Yes Yes
2019AP13 O C K 2019-01-15.46704 1.000E-05 09:24:23.580 1.500E-01 0.500 F 0.100 -0.471 +21° 26' 50.20" 1.000E-01 0.500 F 0.279 0.389 21.5 R 0.70 0.69 o 691 1.24 Yes Yes
2019AE11 O C K 2019-01-15.47297 1.000E-05 09:31:07.480 1.500E-01 0.500 F 0.068 0.256 +11° 57' 31.10" 1.000E-01 0.500 F 0.246 -0.143 21.2 R 0.70 -0.05 o 691 0.64 Yes Yes
2019AE11 O C K 2019-01-15.48477 1.000E-05 09:31:04.040 1.500E-01 0.500 F 0.068 -0.062 +11° 57' 16.30" 1.000E-01 0.500 F 0.246 0.082 21.4 R 0.70 0.15 o 691 0.22 Yes Yes
2019AE11 O C K 2019-01-15.49657 1.000E-05 09:31:00.620 1.500E-01 0.500 F 0.068 -0.166 +11° 57' 00.90" 1.000E-01 0.500 F 0.246 -0.279 21.1 R 0.70 -0.15 o 691 0.71 Yes Yes
2019AR13 O C K 2019-01-15.50917 1.000E-05 09:57:46.480 1.500E-01 0.500 F 0.090 -0.018 +20° 36' 18.80" 1.000E-01 0.500 F 0.237 0.263 21.0 R 0.70 0.13 o 691 0.53 Yes Yes
2019AW11 O C K 2019-01-15.51370 1.000E-05 10:36:33.930 1.500E-01 0.500 F 0.028 0.305 +15° 34' 29.20" 1.000E-01 0.500 F 0.208 -0.365 20.8 R 0.70 -0.31 o 691 0.96 Yes Yes
2013VX4 O C K 2019-01-15.52001 1.000E-05 11:13:16.230 1.500E-01 0.500 F 0.335 -0.264 +21° 56' 22.90" 1.000E-01 0.500 F 0.256 0.124 21.4 R 0.70 0.53 o 691 0.60 Yes Yes
2019AR13 O C K 2019-01-15.52542 1.000E-05 09:57:45.670 1.500E-01 0.500 F 0.090 -0.191 +20° 36' 48.50" 1.000E-01 0.500 F 0.237 -0.471 21.1 R 0.70 0.23 o 691 1.03 Yes Yes
2019AW11 O C K 2019-01-15.52990 1.000E-05 10:36:38.050 1.500E-01 0.500 F 0.028 -0.145 +15° 34' 18.70" 1.000E-01 0.500 F 0.208 0.130 21.0 R 0.70 -0.11 o 691 0.39 Yes Yes
2013VX4 O C K 2019-01-15.53622 1.000E-05 11:13:14.470 1.500E-01 0.500 F 0.335 -0.515 +21° 56' 29.80" 1.000E-01 0.500 F 0.256 -0.367 20.9 R 0.70 0.02 o 691 1.27 Yes Yes
2019AW11 O C K 2019-01-15.54614 1.000E-05 10:36:42.280 1.500E-01 0.500 F 0.028 0.654 +15° 34' 06.90" 1.000E-01 0.500 F 0.208 -0.573 20.3 R 0.70 -0.81 o 691 1.75 Yes Yes
2013VX4 O C K 2019-01-15.55245 1.000E-05 11:13:12.840 1.500E-01 0.500 F 0.335 0.792 +21° 56' 37.30" 1.000E-01 0.500 F 0.256 -0.064 20.5 R 0.70 -0.38 o 691 1.62 Yes Yes
2019AN13 O C K 2019-01-17.11668 1.000E-05 03:41:53.370 1.500E-01 0.500 F -0.177 0.768 -14° 54' 22.20" 1.000E-01 0.500 F 0.055 0.045 20.7 R 0.70 0.18 o 691 1.54 Yes Yes
2019AN13 O C K 2019-01-17.12427 1.000E-05 03:41:54.210 1.500E-01 0.500 F -0.177 -0.530 -14° 54' 21.50" 1.000E-01 0.500 F 0.055 0.517 20.3 R 0.70 -0.22 o 691 1.49 Yes Yes
2019AN13 O C K 2019-01-17.13187 1.000E-05 03:41:55.220 1.500E-01 0.500 F -0.177 0.621 -14° 54' 21.70" 1.000E-01 0.500 F 0.055 0.075 o 691 1.25 Yes No
2018YU O C 2019-01-17.30457 1.000E-05 09:40:36.460 1.500E-01 0.500 F 0.247 -0.106 -28° 35' 36.50" 1.000E-01 0.500 F 0.027 0.109 20.2 V 0.70 0.29 o 691 0.31 Yes Yes
2018YU O C 2019-01-17.30923 1.000E-05 09:40:36.810 1.500E-01 0.500 F 0.247 -0.462 -28° 35' 52.70" 1.000E-01 0.500 F 0.027 0.230 19.9 V 0.70 -0.01 o 691 1.05 Yes Yes
2018YU O C 2019-01-17.31388 1.000E-05 09:40:37.220 1.500E-01 0.500 F 0.247 -0.009 -28° 36' 08.90" 1.000E-01 0.500 F 0.027 0.309 19.9 V 0.70 -0.01 o 691 0.63 Yes Yes
2019AH13 O C K 2019-01-17.33011 1.000E-05 09:46:38.120 1.500E-01 0.500 F 0.085 -0.867 +00° 53' 07.80" 1.000E-01 0.500 F 0.232 -0.434 20.9 R 0.70 0.25 o 691 1.96 Yes Yes
2019AH13 O C K 2019-01-17.35184 1.000E-05 09:46:43.210 1.500E-01 0.500 F 0.085 -1.122 +00° 54' 28.20" 1.000E-01 0.500 F 0.232 -0.020 20.8 R 0.70 0.15 o 691 2.26 Yes Yes
2019AH13 O C K 2019-01-17.37360 1.000E-05 09:46:48.260 1.500E-01 0.500 F 0.085 -1.330 +00° 55' 48.00" 1.000E-01 0.500 F 0.232 -0.328 20.5 R 0.70 -0.15 o 691 2.76 Yes Yes
2019AP13 O C K 2019-01-17.43602 1.000E-05 09:15:01.190 1.500E-01 0.500 F 0.113 0.363 +23° 01' 15.20" 1.000E-01 0.500 F 0.339 0.218 20.9 R 0.70 0.06 o 691 0.86 Yes Yes
2019AP13 O C K 2019-01-17.44464 1.000E-05 09:14:58.710 1.500E-01 0.500 F 0.113 0.007 +23° 01' 38.10" 1.000E-01 0.500 F 0.339 -0.104 20.5 R 0.70 -0.34 o 691 0.21 Yes Yes
2019AP13 O C K 2019-01-17.45328 1.000E-05 09:14:56.240 1.500E-01 0.500 F 0.113 -0.164 +23° 02' 01.50" 1.000E-01 0.500 F 0.339 0.049 21.3 R 0.70 0.46 o 691 0.35 Yes Yes
2006VA3 O C 2019-01-17.53075 1.000E-05 10:55:26.050 1.500E-01 0.500 F 0.168 0.407 +03° 24' 33.70" 1.000E-01 0.500 F 0.036 -0.273 18.5 V 0.70 0.26 o 691 0.98 Yes Yes
2006VA3 O C 2019-01-17.54224 1.000E-05 10:55:24.700 1.500E-01 0.500 F 0.168 -0.127 +03° 23' 58.70" 1.000E-01 0.500 F 0.036 -0.189 18.5 V 0.70 0.26 o 691 0.46 Yes Yes
2013AY52 O C 2019-01-24.30874 1.000E-05 08:16:20.160 1.500E-01 0.500 F -0.111 -0.119 +29° 19' 44.90" 1.000E-01 0.500 F 0.260 0.070 o 691 0.28 Yes No
2013AY52 O C 2019-01-24.31381 1.000E-05 08:16:19.220 1.500E-01 0.500 F -0.111 0.087 +29° 19' 59.60" 1.000E-01 0.500 F 0.260 0.181 o 691 0.40 Yes No
2013AY52 O C 2019-01-24.31551 1.000E-05 08:16:18.890 1.500E-01 0.500 F -0.111 -0.038 +29° 20' 04.20" 1.000E-01 0.500 F 0.260 -0.106 o 691 0.23 Yes No
2015YE21 O C K 2019-01-24.32542 1.000E-05 08:05:25.520 1.500E-01 0.500 F 0.012 -0.349 -00° 38' 58.40" 1.000E-01 0.500 F 0.025 -0.042 19.3 R 0.70 0.04 o 691 0.71 Yes Yes
2015YE21 O C K 2019-01-24.32841 1.000E-05 08:05:25.170 1.500E-01 0.500 F 0.012 0.069 -00° 39' 01.60" 1.000E-01 0.500 F 0.025 0.014 19.3 R 0.70 0.04 o 691 0.14 Yes Yes
2015YE21 O C K 2019-01-24.33140 1.000E-05 08:05:24.750 1.500E-01 0.500 F 0.012 -0.565 -00° 39' 05.10" 1.000E-01 0.500 F 0.025 -0.230 18.9 R 0.70 -0.36 o 691 1.23 Yes Yes
2018XG5 O C 2019-01-26.13304 1.000E-05 03:50:10.260 1.500E-01 0.500 F -0.279 0.006 -07° 41' 35.80" 1.000E-01 0.500 F 0.152 -0.267 22.0 V 0.70 0.69 o 691 0.53 Yes Yes
2018XG5 O C 2019-01-26.13978 1.000E-05 03:50:10.090 1.500E-01 0.500 F -0.279 0.254 -07° 41' 37.20" 1.000E-01 0.500 F 0.152 -0.119 21.2 V 0.70 -0.11 o 691 0.56 Yes Yes
2018XG5 O C 2019-01-26.14653 1.000E-05 03:50:09.890 1.500E-01 0.500 F -0.279 0.056 -07° 41' 38.90" 1.000E-01 0.500 F 0.152 -0.274 21.4 V 0.70 0.09 o 691 0.56 Yes Yes
2015HV171 O C H 2019-01-26.15218 1.000E-05 04:15:40.570 1.500E-01 0.500 F -0.281 1.674 -17° 51' 44.50" 1.000E-01 0.500 F 0.229 -0.668 o 691 3.59 No No
2015HV171 O C H 2019-01-26.15984 1.000E-05 04:15:40.350 1.500E-01 0.500 F -0.281 0.126 -17° 51' 43.40" 1.000E-01 0.500 F 0.229 0.424 21.1 R 0.70 0.38 o 691 0.89 Yes Yes
2015HV171 O C H 2019-01-26.16750 1.000E-05 04:15:40.250 1.500E-01 0.500 F -0.281 0.287 -17° 51' 42.70" 1.000E-01 0.500 F 0.229 1.111 o 691 2.31 Yes No
2015AX16 O C 2019-01-26.27868 1.000E-05 08:00:01.430 1.500E-01 0.500 F -0.058 -0.132 -00° 36' 46.00" 1.000E-01 0.500 F 0.036 0.074 o 691 0.31 Yes No
2015YE21 O C H 2019-01-26.27868 1.000E-05 08:01:44.270 1.500E-01 0.500 F -0.042 -0.112 -01° 12' 45.30" 1.000E-01 0.500 F 0.010 0.085 19.3 R 0.70 -0.02 o 691 0.28 Yes Yes
2015AX16 O C 2019-01-26.28484 1.000E-05 08:00:01.090 1.500E-01 0.500 F -0.058 -0.159 -00° 36' 38.70" 1.000E-01 0.500 F 0.036 -0.020 o 691 0.32 Yes No
2015YE21 O C H 2019-01-26.28484 1.000E-05 08:01:43.530 1.500E-01 0.500 F -0.042 0.064 -01° 12' 51.50" 1.000E-01 0.500 F 0.010 -0.037 19.0 R 0.70 -0.32 o 691 0.15 Yes Yes
2015AX16 O C 2019-01-26.29100 1.000E-05 08:00:00.740 1.500E-01 0.500 F -0.058 -0.335 -00° 36' 31.20" 1.000E-01 0.500 F 0.036 0.086 o 691 0.70 Yes No
2015YE21 O C H 2019-01-26.29100 1.000E-05 08:01:42.820 1.500E-01 0.500 F -0.042 0.693 -01° 12' 57.20" 1.000E-01 0.500 F 0.010 0.338 19.1 R 0.70 -0.22 o 691 1.55 Yes Yes
2019AQ4 O C H 2019-01-26.29881 1.000E-05 08:25:53.670 1.500E-01 0.500 F 0.017 -1.158 +05° 38' 27.40" 1.000E-01 0.500 F 0.164 0.063 o 691 2.34 Yes No
2019AQ4 O C H 2019-01-26.30494 1.000E-05 08:25:52.390 1.500E-01 0.500 F 0.017 -0.247 +05° 38' 21.60" 1.000E-01 0.500 F 0.164 0.120 o 691 0.55 Yes No
2019AQ4 O C H 2019-01-26.31095 1.000E-05 08:25:51.060 1.500E-01 0.500 F 0.017 -0.474 +05° 38' 15.60" 1.000E-01 0.500 F 0.164 -0.137 o 691 1.00 Yes No
2019BK O C H 2019-01-26.31539 1.000E-05 08:59:15.280 1.500E-01 0.500 F 0.175 -0.273 -03° 39' 50.80" 1.000E-01 0.500 F 0.050 0.093 18.0 R 0.70 -0.01 o 691 0.58 Yes Yes
2019BK O C H 2019-01-26.32189 1.000E-05 08:59:13.080 1.500E-01 0.500 F 0.175 0.047 -03° 39' 20.20" 1.000E-01 0.500 F 0.050 -0.102 18.1 R 0.70 0.09 o 691 0.23 Yes Yes
2019BK O C H 2019-01-26.32828 1.000E-05 08:59:10.900 1.500E-01 0.500 F 0.175 0.084 -03° 38' 50.00" 1.000E-01 0.500 F 0.050 -0.159 18.1 R 0.70 0.09 o 691 0.36 Yes Yes
2018XU6 O C 2019-01-26.38600 1.000E-05 10:16:52.740 1.500E-01 0.500 F 0.220 -0.449 +19° 29' 22.70" 1.000E-01 0.500 F 0.269 0.299 o 691 1.08 Yes No
2018XU6 O C 2019-01-26.39379 1.000E-05 10:16:53.280 1.500E-01 0.500 F 0.220 -0.237 +19° 29' 06.10" 1.000E-01 0.500 F 0.269 -0.287 o 691 0.75 Yes No
2018XU6 O C 2019-01-26.40176 1.000E-05 10:16:53.800 1.500E-01 0.500 F 0.220 -0.478 +19° 28' 49.80" 1.000E-01 0.500 F 0.269 -0.169 o 691 1.02 Yes No
2009XR2 O C K 2019-01-27.09117 1.000E-05 01:45:05.130 1.500E-01 0.500 F -0.314 -1.564 +13° 28' 26.80" 1.000E-01 0.500 F 0.198 0.084 o 691 3.15 Yes No
2009XR2 O C K 2019-01-27.09865 1.000E-05 01:45:07.410 1.500E-01 0.500 F -0.314 -0.603 +13° 28' 20.30" 1.000E-01 0.500 F 0.198 -0.009 o 691 1.21 Yes No
2009XR2 O C K 2019-01-27.10615 1.000E-05 01:45:09.690 1.500E-01 0.500 F -0.314 0.266 +13° 28' 14.00" 1.000E-01 0.500 F 0.198 0.121 o 691 0.59 Yes No
1999VG22 O C 2019-01-27.11441 1.000E-05 02:18:31.110 1.500E-01 0.612 F -0.267 -0.499 +13° 34' 25.40" 1.000E-01 0.612 F 0.295 -0.532 o 691 1.19 Yes No
1999VG22 O C 2019-01-27.11665 1.000E-05 02:18:31.470 1.500E-01 0.612 F -0.267 -0.077 +13° 34' 26.90" 1.000E-01 0.612 F 0.295 -0.067 o 691 0.17 Yes No
2018VV1 O C 2019-01-27.11889 1.000E-05 02:30:19.040 1.500E-01 0.500 F -0.132 -0.700 +12° 15' 28.80" 1.000E-01 0.500 F 0.403 -0.204 o 691 1.47 Yes No
1999VG22 O C 2019-01-27.12114 1.000E-05 02:18:32.130 1.500E-01 0.612 F -0.267 -0.135 +13° 34' 29.00" 1.000E-01 0.612 F 0.295 -0.039 o 691 0.23 Yes No
1999VG22 O C 2019-01-27.12338 1.000E-05 02:18:32.460 1.500E-01 0.612 F -0.267 -0.154 +13° 34' 29.80" 1.000E-01 0.612 F 0.295 -0.272 o 691 0.51 Yes No
2018VV1 O C 2019-01-27.12563 1.000E-05 02:30:20.010 1.500E-01 0.500 F -0.132 -0.031 +12° 15' 35.40" 1.000E-01 0.500 F 0.403 0.342 o 691 0.69 Yes No
1999VG22 O C 2019-01-27.12788 1.000E-05 02:18:33.110 1.500E-01 0.612 F -0.267 -0.385 +13° 34' 31.40" 1.000E-01 0.612 F 0.295 -0.746 o 691 1.37 Yes No
1999VG22 O C 2019-01-27.13012 1.000E-05 02:18:33.510 1.500E-01 0.612 F -0.267 0.612 +13° 34' 32.60" 1.000E-01 0.612 F 0.295 -0.578 o 691 1.38 Yes No
2018VV1 O C 2019-01-27.13237 1.000E-05 02:30:20.920 1.500E-01 0.500 F -0.132 -0.252 +12° 15' 41.10" 1.000E-01 0.500 F 0.403 -0.009 o 691 0.51 Yes No
2019AN13 O C K 2019-01-27.16440 1.000E-05 04:07:02.600 1.500E-01 0.500 F -0.300 0.441 -14° 20' 37.30" 1.000E-01 0.500 F 0.092 0.333 21.2 R 0.70 0.66 o 691 1.11 Yes Yes
2019AN13 O C K 2019-01-27.18717 1.000E-05 04:07:06.060 1.500E-01 0.500 F -0.300 -2.399 -14° 20' 30.30" 1.000E-01 0.500 F 0.092 -1.220 21.8 R 0.70 1.26 o 691 5.36 No Yes
2016RO1 O C H 2019-01-27.21453 1.000E-05 04:58:22.970 1.500E-01 0.612 F -0.073 -0.273 -26° 57' 47.10" 1.000E-01 0.612 F 0.179 0.184 18.3 R 0.70 0.11 o 691 0.54 Yes Yes
2016RO1 O C 2019-01-27.21660 1.000E-05 04:58:23.520 1.500E-01 0.612 F -0.073 -0.168 -26° 57' 48.60" 1.000E-01 0.612 F 0.179 0.010 o 691 0.28 Yes No
2016RO1 O C H 2019-01-27.22363 1.000E-05 04:58:25.400 1.500E-01 0.612 F -0.073 0.339 -26° 57' 53.70" 1.000E-01 0.612 F 0.179 -0.608 18.0 R 0.70 -0.19 o 691 1.15 Yes Yes
2016RO1 O C 2019-01-27.22570 1.000E-05 04:58:25.830 1.500E-01 0.612 F -0.073 -1.167 -26° 57' 55.00" 1.000E-01 0.612 F 0.179 -0.594 o 691 2.15 Yes No
2016RO1 O C H 2019-01-27.23273 1.000E-05 04:58:27.760 1.500E-01 0.612 F -0.073 -0.018 -26° 57' 58.80" 1.000E-01 0.612 F 0.179 0.045 18.3 R 0.70 0.11 o 691 0.08 Yes Yes
2016RO1 O C 2019-01-27.23480 1.000E-05 04:58:28.300 1.500E-01 0.612 F -0.073 -0.063 -26° 58' 00.10" 1.000E-01 0.612 F 0.179 0.046 o 691 0.13 Yes No
2019BQ3 O C H 2019-01-27.26553 1.000E-05 07:42:01.290 1.500E-01 0.500 F 0.040 0.503 +09° 09' 35.10" 1.000E-01 0.500 F 0.133 -0.057 20.0 R 0.70 0.12 o 691 1.05 Yes Yes
2019BF4 O C H 2019-01-27.26776 1.000E-05 07:38:22.640 1.500E-01 0.500 F -0.016 0.073 +11° 50' 42.90" 1.000E-01 0.500 F 0.179 0.686 20.4 R 0.70 0.15 o 691 1.39 Yes Yes
2019BQ3 O C H 2019-01-27.27448 1.000E-05 07:42:01.760 1.500E-01 0.500 F 0.040 -0.183 +09° 10' 08.70" 1.000E-01 0.500 F 0.133 0.665 19.8 R 0.70 -0.08 o 691 1.43 Yes Yes
2019BF4 O C H 2019-01-27.27670 1.000E-05 07:38:22.530 1.500E-01 0.500 F -0.016 0.623 +11° 50' 47.00" 1.000E-01 0.500 F 0.179 -0.978 20.5 R 0.70 0.25 o 691 2.34 Yes Yes
2019BF4 O C H 2019-01-27.28565 1.000E-05 07:38:22.360 1.500E-01 0.500 F -0.016 0.294 +11° 50' 53.80" 1.000E-01 0.500 F 0.179 0.068 21.1 R 0.70 0.85 o 691 0.61 Yes Yes
2007AG12 O C 2019-01-27.31630 1.000E-05 08:24:48.640 1.500E-01 0.500 F 0.063 -0.431 +18° 26' 46.70" 1.000E-01 0.500 F 0.267 -0.263 o 691 1.02 Yes No
2007AG12 O C 2019-01-27.33116 1.000E-05 08:24:44.980 1.500E-01 0.500 F 0.063 -0.399 +18° 26' 17.80" 1.000E-01 0.500 F 0.267 -0.271 o 691 0.97 Yes No
1994VA1 O C 2019-01-27.38839 1.000E-05 10:00:58.460 1.500E-01 0.500 F 0.132 -0.184 -13° 24' 34.70" 1.000E-01 0.500 F 0.004 -0.148 o 691 0.47 Yes No
1981QB O C 2019-01-27.38839 1.000E-05 10:00:46.770 1.500E-01 0.500 F 0.028 -0.108 -12° 39' 40.20" 1.000E-01 0.500 F 0.113 0.015 o 691 0.22 Yes No
2019AW4 O C H 2019-01-27.38839 1.000E-05 10:01:14.380 1.500E-01 0.500 F 0.028 0.001 -12° 33' 00.30" 1.000E-01 0.500 F 0.113 0.179 19.9 R 0.70 0.22 o 691 0.36 Yes Yes
1994VA1 O C 2019-01-27.39559 1.000E-05 10:00:58.280 1.500E-01 0.500 F 0.132 -0.096 -13° 24' 40.80" 1.000E-01 0.500 F 0.004 -0.005 o 691 0.19 Yes No
2019AW4 O C H 2019-01-27.39559 1.000E-05 10:01:15.380 1.500E-01 0.500 F 0.028 -0.175 -12° 33' 05.40" 1.000E-01 0.500 F 0.113 -0.277 20.8 R 0.70 1.12 o 691 0.66 Yes Yes
1981QB O C 2019-01-27.39559 1.000E-05 10:00:46.180 1.500E-01 0.500 F 0.028 -0.080 -12° 39' 23.60" 1.000E-01 0.500 F 0.113 0.167 o 691 0.37 Yes No
1994VA1 O C 2019-01-27.40279 1.000E-05 10:00:58.090 1.500E-01 0.500 F 0.132 -0.156 -13° 24' 47.10" 1.000E-01 0.500 F 0.004 -0.070 o 691 0.34 Yes No
2019AW4 O C H 2019-01-27.40279 1.000E-05 10:01:16.440 1.500E-01 0.500 F 0.028 0.514 -12° 33' 10.10" 1.000E-01 0.500 F 0.113 -0.346 21.1 R 0.70 1.42 o 691 1.25 Yes Yes
1981QB O C 2019-01-27.40279 1.000E-05 10:00:45.580 1.500E-01 0.500 F 0.028 -0.200 -12° 39' 07.20" 1.000E-01 0.500 F 0.113 0.114 o 691 0.46 Yes No
2018WN2 O C 2019-01-28.20627 1.000E-05 05:02:46.170 1.500E-01 0.500 F 0.003 -0.533 +10° 09' 06.50" 1.000E-01 0.500 F 0.120 0.057 21.0 V 0.70 -0.28 o 691 1.10 Yes Yes
2010GJ23 O C H 2019-01-28.21047 1.000E-05 05:12:51.890 1.500E-01 0.500 F -0.232 -0.270 +13° 26' 46.30" 1.000E-01 0.500 F 0.269 -0.130 20.1 R 0.70 0.40 o 691 0.61 Yes Yes
2018WN2 O C 2019-01-28.21231 1.000E-05 05:02:46.740 1.500E-01 0.500 F 0.003 -0.611 +10° 09' 02.90" 1.000E-01 0.500 F 0.120 -0.237 20.7 V 0.70 -0.58 o 691 1.34 Yes Yes
2010GJ23 O C H 2019-01-28.21640 1.000E-05 05:12:52.530 1.500E-01 0.500 F -0.232 -0.048 +13° 27' 01.70" 1.000E-01 0.500 F 0.269 -0.188 19.8 R 0.70 0.10 o 691 0.40 Yes Yes
2018WN2 O C 2019-01-28.21825 1.000E-05 05:02:47.340 1.500E-01 0.500 F 0.003 -0.113 +10° 09' 00.00" 1.000E-01 0.500 F 0.120 0.119 20.9 V 0.70 -0.38 o 691 0.34 Yes Yes
2010GJ23 O C H 2019-01-28.22233 1.000E-05 05:12:53.140 1.500E-01 0.500 F -0.232 -0.269 +13° 27' 17.30" 1.000E-01 0.500 F 0.269 -0.040 20.1 R 0.70 0.40 o 691 0.56 Yes Yes
Epona O C 2019-01-28.22974 1.000E-05 05:55:47.470 1.500E-01 0.500 F -0.128 -1.467 -09° 44' 55.00" 1.000E-01 0.500 F 0.137 0.821 19.6 V 0.70 -0.21 o 691 3.35 No Yes
Epona O C 2019-01-28.23648 1.000E-05 05:55:47.150 1.500E-01 0.500 F -0.128 0.658 -09° 44' 53.50" 1.000E-01 0.500 F 0.137 -0.092 19.6 V 0.70 -0.21 o 691 1.33 Yes Yes
Epona O C 2019-01-28.24322 1.000E-05 05:55:46.620 1.500E-01 0.500 F -0.128 -0.324 -09° 44' 51.10" 1.000E-01 0.500 F 0.137 -0.107 19.8 V 0.70 -0.01 o 691 0.68 Yes Yes
2018VN3 O C H 2019-01-28.24545 1.000E-05 06:01:10.980 1.500E-01 0.500 F -0.189 0.138 -22° 05' 44.60" 1.000E-01 0.500 F -0.124 -0.152 21.3 R 0.70 0.52 o 691 0.43 Yes Yes
2018VN3 O C H 2019-01-28.25196 1.000E-05 06:01:11.500 1.500E-01 0.500 F -0.189 0.062 -22° 05' 40.40" 1.000E-01 0.500 F -0.124 -0.372 21.6 R 0.70 0.82 o 691 0.80 Yes Yes
2018VN3 O C H 2019-01-28.25847 1.000E-05 06:01:12.030 1.500E-01 0.500 F -0.189 0.114 -22° 05' 35.50" 1.000E-01 0.500 F -0.124 0.093 21.8 R 0.70 1.02 o 691 0.31 Yes Yes
2019AX O C 2019-01-28.27061 1.000E-05 07:30:09.230 1.500E-01 0.500 F -0.053 -2.185 +10° 49' 24.20" 1.000E-01 0.500 F 0.136 -0.162 21.3 V 0.70 0.13 o 691 4.18 No Yes
2019AX O C 2019-01-28.27735 1.000E-05 07:30:10.210 1.500E-01 0.500 F -0.053 -1.167 +10° 49' 35.00" 1.000E-01 0.500 F 0.136 -0.565 21.0 V 0.70 -0.17 o 691 2.73 Yes Yes
2019AX O C 2019-01-28.28408 1.000E-05 07:30:11.140 1.500E-01 0.500 F -0.053 -0.866 +10° 49' 47.00" 1.000E-01 0.500 F 0.136 0.263 21.4 V 0.70 0.23 o 691 1.91 Yes Yes
2019BT3 O C 2019-01-28.31387 1.000E-05 08:28:05.990 1.500E-01 0.500 F 0.047 -0.476 +16° 45' 06.20" 1.000E-01 0.500 F 0.245 0.879 20.2 V 0.70 0.10 o 691 2.05 Yes Yes
2019BT3 O C 2019-01-28.32014 1.000E-05 08:28:04.150 1.500E-01 0.500 F 0.047 0.116 +16° 45' 58.20" 1.000E-01 0.500 F 0.245 -0.056 19.9 V 0.70 -0.20 o 691 0.26 Yes Yes
2019BT3 O C 2019-01-28.32642 1.000E-05 08:28:02.210 1.500E-01 0.500 F 0.047 -0.686 +16° 46' 52.00" 1.000E-01 0.500 F 0.245 0.745 19.9 V 0.70 -0.20 o 691 2.08 Yes Yes
2019AF3 O C 2019-01-28.36590 1.000E-05 07:56:14.830 1.500E-01 0.500 F 0.081 -0.152 +15° 54' 13.60" 1.000E-01 0.500 F 0.228 -0.194 19.5 V 0.70 -0.14 o 691 0.50 Yes Yes
2019AF3 O C 2019-01-28.37360 1.000E-05 07:56:14.540 1.500E-01 0.500 F 0.081 -0.145 +15° 53' 21.70" 1.000E-01 0.500 F 0.228 -0.017 19.7 V 0.70 0.06 o 691 0.30 Yes Yes
2019AF3 O C 2019-01-28.38129 1.000E-05 07:56:14.260 1.500E-01 0.500 F 0.081 -0.085 +15° 52' 30.00" 1.000E-01 0.500 F 0.228 0.321 19.6 V 0.70 -0.04 o 691 0.67 Yes Yes
2018RX O C H 2019-01-28.43317 1.000E-05 11:39:26.370 1.500E-01 0.500 F 0.152 -0.605 -19° 55' 26.10" 1.000E-01 0.500 F -0.116 0.377 19.0 R 0.70 -0.58 o 691 1.44 Yes Yes
2018RX O C H 2019-01-28.43997 1.000E-05 11:39:26.270 1.500E-01 0.500 F 0.152 0.401 -19° 55' 11.10" 1.000E-01 0.500 F -0.116 0.089 19.4 R 0.70 -0.18 o 691 0.83 Yes Yes
2018RX O C H 2019-01-28.44676 1.000E-05 11:39:26.060 1.500E-01 0.500 F 0.152 -0.145 -19° 54' 56.10" 1.000E-01 0.500 F -0.116 -0.188 19.6 R 0.70 0.02 o 691 0.48 Yes Yes
2018WN2 O C K 2019-01-31.22764 1.000E-05 05:08:08.340 1.500E-01 0.500 F -0.018 -0.380 +09° 43' 43.60" 1.000E-01 0.500 F 0.109 -0.425 o 691 1.17 Yes No
2010GJ23 O C K 2019-01-31.23502 1.000E-05 05:18:36.500 1.500E-01 0.500 F -0.200 0.041 +15° 34' 12.20" 1.000E-01 0.500 F 0.171 -0.107 o 691 0.23 Yes No
2018WN2 O C K 2019-01-31.24493 1.000E-05 05:08:10.160 1.500E-01 0.500 F -0.018 0.196 +09° 43' 36.00" 1.000E-01 0.500 F 0.109 0.202 o 691 0.58 Yes No
2010GJ23 O C K 2019-01-31.25231 1.000E-05 05:18:38.420 1.500E-01 0.500 F -0.200 -0.021 +15° 34' 54.50" 1.000E-01 0.500 F 0.171 0.142 19.8 R 0.70 -0.01 o 691 0.29 Yes Yes
2012OP4 O C K 2019-01-31.32020 1.000E-05 08:47:32.290 1.500E-01 0.500 F 0.028 0.019 -14° 27' 32.40" 1.000E-01 0.500 F -0.050 0.019 17.3 R 0.70 0.07 o 691 0.05 Yes Yes
2014XX31 O C 2019-01-31.32289 1.000E-05 08:05:54.320 1.500E-01 0.500 F 0.010 -0.082 +01° 17' 46.60" 1.000E-01 0.500 F 0.002 0.405 20.5 V 0.70 -0.04 o 691 0.90 Yes Yes
2000EW70 O C 2019-01-31.32289 1.000E-05 08:07:46.880 1.500E-01 0.500 F 0.015 -0.172 +00° 20' 01.30" 1.000E-01 0.500 F 0.002 -0.012 o 691 0.35 Yes No
2012OP4 O C K 2019-01-31.32623 1.000E-05 08:47:32.170 1.500E-01 0.500 F 0.028 0.067 -14° 26' 19.00" 1.000E-01 0.500 F -0.050 0.016 17.2 R 0.70 -0.03 o 691 0.14 Yes Yes
2000EW70 O C 2019-01-31.32872 1.000E-05 08:07:45.480 1.500E-01 0.500 F 0.015 -0.054 +00° 20' 09.60" 1.000E-01 0.500 F 0.002 -0.297 o 691 0.61 Yes No
2014XX31 O C 2019-01-31.32872 1.000E-05 08:05:53.550 1.500E-01 0.500 F 0.010 -0.031 +01° 17' 45.10" 1.000E-01 0.500 F 0.002 -0.159 20.5 V 0.70 -0.04 o 691 0.35 Yes Yes
2012OP4 O C K 2019-01-31.33207 1.000E-05 08:47:32.050 1.500E-01 0.500 F 0.028 0.053 -14° 25' 07.70" 1.000E-01 0.500 F -0.050 0.239 17.2 R 0.70 -0.03 o 691 0.49 Yes Yes
2014XX31 O C 2019-01-31.33457 1.000E-05 08:05:52.770 1.500E-01 0.500 F 0.010 -0.092 +01° 17' 44.70" 1.000E-01 0.500 F 0.002 0.380 20.7 V 0.70 0.16 o 691 0.85 Yes Yes
2000EW70 O C 2019-01-31.33457 1.000E-05 08:07:44.060 1.500E-01 0.500 F 0.015 -0.174 +00° 20' 18.30" 1.000E-01 0.500 F 0.002 -0.213 o 691 0.55 Yes No
2019AX O C K 2019-01-31.33827 1.000E-05 07:37:20.260 1.500E-01 0.500 F -0.016 -0.054 +12° 08' 21.80" 1.000E-01 0.500 F 0.179 0.370 21.6 R 0.70 0.60 o 691 0.79 Yes Yes
2019BF4 O C 2019-01-31.33827 1.000E-05 07:38:29.970 1.500E-01 0.500 F -0.066 -0.078 +12° 40' 54.40" 1.000E-01 0.500 F 0.209 -0.121 o 691 0.29 Yes No
2019BF4 O C 2019-01-31.34471 1.000E-05 07:38:29.920 1.500E-01 0.500 F -0.066 -0.186 +12° 40' 59.70" 1.000E-01 0.500 F 0.209 -0.095 o 691 0.42 Yes No
2019AX O C K 2019-01-31.35116 1.000E-05 07:37:21.840 1.500E-01 0.500 F -0.016 0.025 +12° 08' 40.20" 1.000E-01 0.500 F 0.179 0.573 21.2 R 0.70 0.20 o 691 1.22 Yes Yes
2019BF4 O C 2019-01-31.35116 1.000E-05 07:38:29.880 1.500E-01 0.500 F -0.066 -0.176 +12° 41' 05.00" 1.000E-01 0.500 F 0.209 -0.068 o 691 0.38 Yes No
2019BK O C 2019-01-31.35912 1.000E-05 08:39:01.850 1.500E-01 0.500 F 0.070 -0.180 +01° 24' 59.30" 1.000E-01 0.500 F 0.246 0.100 19.1 V 0.70 0.14 o 691 0.41 Yes Yes
2019AN5 O C K 2019-01-31.36183 1.000E-05 08:56:43.300 1.500E-01 0.500 F 0.056 0.005 +14° 16' 46.90" 1.000E-01 0.500 F 0.228 -0.675 20.7 R 0.70 -0.43 o 691 1.35 Yes Yes
2019BK O C 2019-01-31.36632 1.000E-05 08:39:00.480 1.500E-01 0.500 F 0.070 -0.166 +01° 25' 19.00" 1.000E-01 0.500 F 0.246 -0.092 19.0 V 0.70 0.04 o 691 0.38 Yes Yes
2019AN5 O C K 2019-01-31.36891 1.000E-05 08:56:42.430 1.500E-01 0.500 F 0.056 -0.366 +14° 16' 50.80" 1.000E-01 0.500 F 0.228 0.340 21.5 R 0.70 0.37 o 691 1.01 Yes Yes
2019BK O C 2019-01-31.37340 1.000E-05 08:38:59.120 1.500E-01 0.500 F 0.070 -0.384 +01° 25' 38.50" 1.000E-01 0.500 F 0.246 -0.138 19.0 V 0.70 0.04 o 691 0.82 Yes Yes
2019AN5 O C K 2019-01-31.37599 1.000E-05 08:56:41.630 1.500E-01 0.500 F 0.056 0.273 +14° 16' 53.40" 1.000E-01 0.500 F 0.228 0.061 21.1 R 0.70 -0.03 o 691 0.56 Yes Yes
2019AW4 O C 2019-01-31.38342 1.000E-05 10:12:51.920 1.500E-01 0.500 F 0.184 -0.320 -13° 15' 01.10" 1.000E-01 0.500 F 0.010 0.004 19.9 V 0.70 0.24 o 691 0.65 Yes Yes
2019AM10 O C K 2019-01-31.38506 1.000E-05 09:31:36.710 1.500E-01 0.500 F 0.139 0.074 +05° 05' 44.50" 1.000E-01 0.500 F 0.202 0.016 o 691 0.16 Yes No

[1-200] [201-400] [401-600] [601-800] [801-1000] [1001-1200] [1201-1400] [1401-1600] [1601-1800] [1801-2000] [2001-2200] [2201-2400] [2401-2600] [2601-2800] [2801-3000] [3001-3200] [3201-3400] [3401-3600] [3601-3800] [3801-4000] [4001-4200] [4201-4400] [4401-4600] [4601-4800] [4801-5000] [5001-5200] [5201-5400] [5401-5600] [5601-5800] [5801-6000] [6001-6200] [6201-6400] [6401-6600] [6601-6800] [6801-7000] [7001-7200] [7201-7400] [7401-7600] [7601-7800] [7801-8000] [8001-8200] [8201-8400] [8401-8600] [8601-8800] [8801-9000] [9001-9200] [9201-9400] [9401-9600] [9601-9800] [9801-10000] [10001-10200] [10201-10400] [10401-10600] [10601-10800] [10801-11000] [11001-11200] [11201-11400] [11401-11600] [11601-11800] [11801-12000] [12001-12200] [12201-12400] [12401-12600] [12601-12800] [12801-13000] [13001-13200] [13201-13400] [13401-13600] [13601-13800] [13801-14000] [14001-14200] [14201-14400] [14401-14600] [14601-14800] [14801-15000] [15001-15200] [15201-15400] [15401-15600] [15601-15800] [15801-16000] [16001-16200] [16201-16400] [16401-16600] [16601-16800] [16801-17000] [17001-17200] [17201-17400] [17401-17600] [17601-17800] [17801-18000] [18001-18200] [18201-18400] [18401-18600] [18601-18800] [18801-19000] [19001-19200] [19201-19400] [19401-19600] [19601-19800] [19801-20000] [20001-20200] [20201-20400] [20401-20600] [20601-20800] [20801-21000] [21001-21200] [21201-21400] [21401-21600] [21601-21800] [21801-22000] [22001-22200] [22201-22400] [22401-22600] [22601-22800] [22801-23000] [23001-23200] [23201-23400] [23401-23600] [23601-23800] [23801-24000] [24001-24200] [24201-24400] [24401-24600] [24601-24800] [24801-25000] [25001-25200] [25201-25400] [25401-25600] [25601-25800] [25801-26000] [26001-26200] [26201-26400] [26401-26600] [26601-26800] [26801-27000] [27001-27200] [27201-27400] [27401-27600] [27601-27800] [27801-28000] [28001-28200] [28201-28400] [28401-28600] [28601-28800] [28801-29000] [29001-29200] [29201-29400] [29401-29600] [29601-29800] [29801-30000] [30001-30200] [30201-30400] [30401-30600] [30601-30800] [30801-31000] [31001-31200] [31201-31400] [31401-31600] [31601-31800] [31801-32000] [32001-32200] [32201-32400] [32401-32600] [32601-32800] [32801-33000] [33001-33200] [33201-33400] [33401-33600] [33601-33800] [33801-34000] [34001-34200] [34201-34400] [34401-34600] [34601-34800] [34801-35000] [35001-35200] [35201-35400] [35401-35600] [35601-35800] [35801-36000] [36001-36200] [36201-36400] [36401-36600] [36601-36800] [36801-37000] [37001-37200] [37201-37400] [37401-37600] [37601-37800] [37801-38000] [38001-38200] [38201-38400] [38401-38600] [38601-38800] [38801-39000] [39001-39200] [39201-39400] [39401-39600] [39601-39800] [39801-40000] [40001-40200] [40201-40400] [40401-40600] [40601-40800] [40801-41000] [41001-41200] [41201-41400] [41401-41600] [41601-41800] [41801-42000] [42001-42200] [42201-42400] [42401-42600] [42601-42800] [42801-43000] [43001-43200] [43201-43400] [43401-43600] [43601-43800] [43801-44000] [44001-44200] [44201-44400] [44401-44600] [44601-44800] [44801-45000] [45001-45200] [45201-45400] [45401-45600] [45601-45800] [45801-46000] [46001-46200] [46201-46400] [46401-46600] [46601-46800] [46801-47000] [47001-47200] [47201-47400] [47401-47600] [47601-47800] [47801-48000] [48001-48200] [48201-48400] [48401-48600] [48601-48800] [48801-49000] [49001-49200] [49201-49400] [49401-49600] [49601-49800] [49801-50000] [50001-50200] [50201-50388]